sensor_id;sensor_type;location;lat;lon;timestamp;pressure;altitude;pressure_sealevel;temperature;humidity
32873;BME280;19224;52.462;16.898;2023-04-27T00:00:23;100414.66;;;6.70;89.02
32873;BME280;19224;52.462;16.898;2023-04-27T00:02:55;100409.39;;;6.67;89.42
32873;BME280;19224;52.462;16.898;2023-04-27T00:05:25;100414.55;;;6.73;89.02
32873;BME280;19224;52.462;16.898;2023-04-27T00:07:55;100406.02;;;6.75;89.08
32873;BME280;19224;52.462;16.898;2023-04-27T00:10:25;100411.78;;;6.76;89.44
32873;BME280;19224;52.462;16.898;2023-04-27T00:12:55;100412.59;;;6.79;89.53
32873;BME280;19224;52.462;16.898;2023-04-27T00:15:26;100413.80;;;6.84;89.38
32873;BME280;19224;52.462;16.898;2023-04-27T00:17:57;100410.77;;;6.96;88.31
32873;BME280;19224;52.462;16.898;2023-04-27T00:20:29;100409.69;;;7.03;88.00
32873;BME280;19224;52.462;16.898;2023-04-27T00:23:00;100404.21;;;6.91;89.24
32873;BME280;19224;52.462;16.898;2023-04-27T00:25:30;100403.41;;;6.88;89.89
32873;BME280;19224;52.462;16.898;2023-04-27T00:28:00;100401.12;;;6.90;89.55
32873;BME280;19224;52.462;16.898;2023-04-27T00:30:30;100399.40;;;6.88;89.61
32873;BME280;19224;52.462;16.898;2023-04-27T00:33:01;100409.05;;;6.79;90.64
32873;BME280;19224;52.462;16.898;2023-04-27T00:35:32;100402.77;;;6.80;90.76
32873;BME280;19224;52.462;16.898;2023-04-27T00:38:02;100404.81;;;6.86;90.44
32873;BME280;19224;52.462;16.898;2023-04-27T00:40:32;100406.95;;;6.74;91.42
32873;BME280;19224;52.462;16.898;2023-04-27T00:43:03;100405.86;;;6.81;90.87
32873;BME280;19224;52.462;16.898;2023-04-27T00:45:42;100402.77;;;6.80;91.12
32873;BME280;19224;52.462;16.898;2023-04-27T00:48:13;100411.88;;;6.73;92.02
32873;BME280;19224;52.462;16.898;2023-04-27T00:50:43;100408.89;;;6.83;91.30
32873;BME280;19224;52.462;16.898;2023-04-27T00:53:14;100404.75;;;6.88;91.00
32873;BME280;19224;52.462;16.898;2023-04-27T00:55:44;100404.18;;;6.93;90.83
32873;BME280;19224;52.462;16.898;2023-04-27T00:58:16;100410.62;;;7.02;90.14
32873;BME280;19224;52.462;16.898;2023-04-27T01:00:46;100415.33;;;7.08;89.82
32873;BME280;19224;52.462;16.898;2023-04-27T01:03:17;100417.79;;;6.99;90.57
32873;BME280;19224;52.462;16.898;2023-04-27T01:05:47;100415.30;;;6.94;91.55
32873;BME280;19224;52.462;16.898;2023-04-27T01:08:18;100418.08;;;7.05;90.60
32873;BME280;19224;52.462;16.898;2023-04-27T01:10:49;100412.55;;;7.11;90.25
32873;BME280;19224;52.462;16.898;2023-04-27T01:13:19;100414.72;;;7.13;90.05
32873;BME280;19224;52.462;16.898;2023-04-27T01:15:50;100415.07;;;7.17;89.98
32873;BME280;19224;52.462;16.898;2023-04-27T01:18:20;100416.95;;;6.98;91.39
32873;BME280;19224;52.462;16.898;2023-04-27T01:20:51;100418.52;;;7.06;91.09
32873;BME280;19224;52.462;16.898;2023-04-27T01:23:21;100420.75;;;7.05;91.14
32873;BME280;19224;52.462;16.898;2023-04-27T01:25:51;100413.42;;;6.97;91.68
32873;BME280;19224;52.462;16.898;2023-04-27T01:28:22;100417.72;;;7.03;91.37
32873;BME280;19224;52.462;16.898;2023-04-27T01:30:52;100416.92;;;6.99;92.04
32873;BME280;19224;52.462;16.898;2023-04-27T01:33:22;100418.45;;;7.07;91.60
32873;BME280;19224;52.462;16.898;2023-04-27T01:35:53;100422.31;;;6.98;92.96
32873;BME280;19224;52.462;16.898;2023-04-27T01:38:23;100419.58;;;7.01;92.92
32873;BME280;19224;52.462;16.898;2023-04-27T01:40:54;100424.77;;;7.05;92.95
32873;BME280;19224;52.462;16.898;2023-04-27T01:43:26;100426.08;;;7.06;92.68
32873;BME280;19224;52.462;16.898;2023-04-27T01:46:08;100424.73;;;7.06;93.07
32873;BME280;19224;52.462;16.898;2023-04-27T01:48:41;100425.27;;;7.19;92.09
32873;BME280;19224;52.462;16.898;2023-04-27T01:51:12;100432.20;;;7.11;93.06
32873;BME280;19224;52.462;16.898;2023-04-27T01:53:43;100425.09;;;6.95;94.69
32873;BME280;19224;52.462;16.898;2023-04-27T01:56:13;100426.68;;;7.02;94.52
32873;BME280;19224;52.462;16.898;2023-04-27T01:58:44;100429.58;;;7.08;93.59
32873;BME280;19224;52.462;16.898;2023-04-27T02:01:16;100432.09;;;6.98;94.58
32873;BME280;19224;52.462;16.898;2023-04-27T02:03:46;100438.06;;;6.94;95.35
32873;BME280;19224;52.462;16.898;2023-04-27T02:06:17;100433.31;;;7.03;94.87
32873;BME280;19224;52.462;16.898;2023-04-27T02:08:47;100436.40;;;6.90;95.60
32873;BME280;19224;52.462;16.898;2023-04-27T02:11:17;100438.97;;;6.77;96.51
32873;BME280;19224;52.462;16.898;2023-04-27T02:13:48;100434.07;;;6.92;95.60
32873;BME280;19224;52.462;16.898;2023-04-27T02:16:18;100429.06;;;7.10;94.21
32873;BME280;19224;52.462;16.898;2023-04-27T02:18:48;100433.09;;;7.10;93.70
32873;BME280;19224;52.462;16.898;2023-04-27T02:21:20;100444.91;;;7.03;94.35
32873;BME280;19224;52.462;16.898;2023-04-27T02:23:51;100437.17;;;7.09;93.73
32873;BME280;19224;52.462;16.898;2023-04-27T02:26:21;100447.63;;;7.18;93.38
32873;BME280;19224;52.462;16.898;2023-04-27T02:28:54;100451.00;;;7.08;93.97
32873;BME280;19224;52.462;16.898;2023-04-27T02:31:27;100445.09;;;6.82;95.91
32873;BME280;19224;52.462;16.898;2023-04-27T02:33:58;100447.58;;;6.88;95.51
32873;BME280;19224;52.462;16.898;2023-04-27T02:36:28;100449.05;;;6.99;94.75
32873;BME280;19224;52.462;16.898;2023-04-27T02:38:59;100448.10;;;7.02;94.59
32873;BME280;19224;52.462;16.898;2023-04-27T02:41:32;100444.91;;;7.03;94.50
32873;BME280;19224;52.462;16.898;2023-04-27T02:44:02;100450.69;;;7.04;94.51
32873;BME280;19224;52.462;16.898;2023-04-27T02:46:32;100448.13;;;7.00;94.79
32873;BME280;19224;52.462;16.898;2023-04-27T02:49:03;100451.44;;;6.94;95.59
32873;BME280;19224;52.462;16.898;2023-04-27T02:51:34;100447.05;;;6.91;95.91
32873;BME280;19224;52.462;16.898;2023-04-27T02:54:04;100445.26;;;6.92;95.92
32873;BME280;19224;52.462;16.898;2023-04-27T02:56:35;100450.84;;;6.98;95.19
32873;BME280;19224;52.462;16.898;2023-04-27T02:59:05;100459.16;;;7.04;95.00
32873;BME280;19224;52.462;16.898;2023-04-27T03:01:35;100457.89;;;7.03;95.42
32873;BME280;19224;52.462;16.898;2023-04-27T03:04:06;100459.80;;;6.98;95.75
32873;BME280;19224;52.462;16.898;2023-04-27T03:06:36;100463.94;;;6.93;96.23
32873;BME280;19224;52.462;16.898;2023-04-27T03:09:07;100462.30;;;6.88;96.82
32873;BME280;19224;52.462;16.898;2023-04-27T03:11:39;100462.58;;;6.79;97.82
32873;BME280;19224;52.462;16.898;2023-04-27T03:14:09;100472.09;;;6.73;98.56
32873;BME280;19224;52.462;16.898;2023-04-27T03:16:41;100471.23;;;6.72;98.85
32873;BME280;19224;52.462;16.898;2023-04-27T03:19:11;100472.42;;;6.61;99.84
32873;BME280;19224;52.462;16.898;2023-04-27T03:21:42;100470.85;;;6.70;99.32
32873;BME280;19224;52.462;16.898;2023-04-27T03:24:12;100473.43;;;6.57;100.00
32873;BME280;19224;52.462;16.898;2023-04-27T03:26:42;100476.70;;;6.68;99.84
32873;BME280;19224;52.462;16.898;2023-04-27T03:29:13;100480.90;;;6.78;99.17
32873;BME280;19224;52.462;16.898;2023-04-27T03:31:43;100492.08;;;6.76;99.49
32873;BME280;19224;52.462;16.898;2023-04-27T03:34:14;100482.98;;;6.67;100.00
32873;BME280;19224;52.462;16.898;2023-04-27T03:36:44;100484.77;;;6.66;100.00
32873;BME280;19224;52.462;16.898;2023-04-27T03:39:15;100486.78;;;6.74;100.00
32873;BME280;19224;52.462;16.898;2023-04-27T03:41:46;100484.64;;;6.71;100.00
32873;BME280;19224;52.462;16.898;2023-04-27T03:44:16;100483.12;;;6.61;100.00
32873;BME280;19224;52.462;16.898;2023-04-27T03:46:46;100485.89;;;6.58;100.00
32873;BME280;19224;52.462;16.898;2023-04-27T03:49:16;100491.88;;;6.50;100.00
32873;BME280;19224;52.462;16.898;2023-04-27T03:51:46;100493.83;;;6.61;100.00
32873;BME280;19224;52.462;16.898;2023-04-27T03:54:16;100494.75;;;6.60;100.00
32873;BME280;19224;52.462;16.898;2023-04-27T03:56:47;100497.25;;;6.66;100.00
32873;BME280;19224;52.462;16.898;2023-04-27T03:59:17;100496.80;;;6.50;100.00
32873;BME280;19224;52.462;16.898;2023-04-27T04:01:47;100501.75;;;6.48;100.00
32873;BME280;19224;52.462;16.898;2023-04-27T04:04:18;100496.91;;;6.28;100.00
32873;BME280;19224;52.462;16.898;2023-04-27T04:06:49;100499.44;;;6.33;100.00
32873;BME280;19224;52.462;16.898;2023-04-27T04:09:19;100500.77;;;6.33;100.00
32873;BME280;19224;52.462;16.898;2023-04-27T04:11:51;100503.95;;;6.31;100.00
32873;BME280;19224;52.462;16.898;2023-04-27T04:14:21;100508.66;;;6.39;100.00
32873;BME280;19224;52.462;16.898;2023-04-27T04:16:51;100508.66;;;6.56;100.00
32873;BME280;19224;52.462;16.898;2023-04-27T04:19:22;100514.77;;;6.44;100.00
32873;BME280;19224;52.462;16.898;2023-04-27T04:21:55;100509.71;;;6.32;100.00
32873;BME280;19224;52.462;16.898;2023-04-27T04:24:25;100511.34;;;6.20;100.00
32873;BME280;19224;52.462;16.898;2023-04-27T04:26:56;100515.06;;;6.32;100.00
32873;BME280;19224;52.462;16.898;2023-04-27T04:29:26;100515.14;;;6.29;100.00
32873;BME280;19224;52.462;16.898;2023-04-27T04:31:56;100522.25;;;6.30;100.00
32873;BME280;19224;52.462;16.898;2023-04-27T04:34:27;100515.33;;;6.21;100.00
32873;BME280;19224;52.462;16.898;2023-04-27T04:36:57;100520.79;;;6.17;100.00
32873;BME280;19224;52.462;16.898;2023-04-27T04:39:31;100518.35;;;6.43;100.00
32873;BME280;19224;52.462;16.898;2023-04-27T04:42:01;100524.63;;;6.42;100.00
32873;BME280;19224;52.462;16.898;2023-04-27T04:44:32;100525.10;;;6.41;100.00
32873;BME280;19224;52.462;16.898;2023-04-27T04:47:02;100524.18;;;6.60;100.00
32873;BME280;19224;52.462;16.898;2023-04-27T04:49:32;100523.27;;;6.77;100.00
32873;BME280;19224;52.462;16.898;2023-04-27T04:52:03;100523.36;;;6.74;100.00
32873;BME280;19224;52.462;16.898;2023-04-27T04:54:33;100528.58;;;6.96;100.00
32873;BME280;19224;52.462;16.898;2023-04-27T04:57:05;100533.48;;;7.12;100.00
32873;BME280;19224;52.462;16.898;2023-04-27T04:59:35;100533.09;;;7.09;100.00
32873;BME280;19224;52.462;16.898;2023-04-27T05:02:05;100528.00;;;7.16;100.00
32873;BME280;19224;52.462;16.898;2023-04-27T05:04:36;100532.94;;;7.15;100.00
32873;BME280;19224;52.462;16.898;2023-04-27T05:07:06;100527.83;;;7.06;100.00
32873;BME280;19224;52.462;16.898;2023-04-27T05:09:36;100530.21;;;7.01;100.00
32873;BME280;19224;52.462;16.898;2023-04-27T05:12:07;100535.89;;;7.22;100.00
32873;BME280;19224;52.462;16.898;2023-04-27T05:14:38;100540.12;;;7.29;100.00
32873;BME280;19224;52.462;16.898;2023-04-27T05:17:08;100548.52;;;7.33;100.00
32873;BME280;19224;52.462;16.898;2023-04-27T05:19:39;100547.66;;;7.31;100.00
32873;BME280;19224;52.462;16.898;2023-04-27T05:22:10;100546.42;;;7.44;100.00
32873;BME280;19224;52.462;16.898;2023-04-27T05:24:40;100550.56;;;7.54;100.00
32873;BME280;19224;52.462;16.898;2023-04-27T05:27:12;100555.09;;;7.52;100.00
32873;BME280;19224;52.462;16.898;2023-04-27T05:29:45;100552.93;;;7.50;100.00
32873;BME280;19224;52.462;16.898;2023-04-27T05:32:15;100557.20;;;7.57;100.00
32873;BME280;19224;52.462;16.898;2023-04-27T05:34:46;100555.32;;;7.61;100.00
32873;BME280;19224;52.462;16.898;2023-04-27T05:37:16;100565.21;;;7.43;100.00
32873;BME280;19224;52.462;16.898;2023-04-27T05:39:46;100569.20;;;7.44;100.00
32873;BME280;19224;52.462;16.898;2023-04-27T05:42:17;100571.84;;;7.60;100.00
32873;BME280;19224;52.462;16.898;2023-04-27T05:44:47;100578.09;;;7.75;100.00
32873;BME280;19224;52.462;16.898;2023-04-27T05:47:18;100573.81;;;7.84;99.57
32873;BME280;19224;52.462;16.898;2023-04-27T05:49:54;100576.98;;;7.84;99.17
32873;BME280;19224;52.462;16.898;2023-04-27T05:52:24;100568.73;;;7.90;98.68
32873;BME280;19224;52.462;16.898;2023-04-27T05:54:57;100571.25;;;7.96;98.12
32873;BME280;19224;52.462;16.898;2023-04-27T05:57:27;100572.11;;;7.96;97.48
32873;BME280;19224;52.462;16.898;2023-04-27T05:59:57;100575.45;;;8.04;96.43
32873;BME280;19224;52.462;16.898;2023-04-27T06:02:28;100579.33;;;7.94;97.20
32873;BME280;19224;52.462;16.898;2023-04-27T06:04:58;100591.55;;;8.04;97.64
32873;BME280;19224;52.462;16.898;2023-04-27T06:07:29;100586.17;;;8.04;96.96
32873;BME280;19224;52.462;16.898;2023-04-27T06:09:59;100582.91;;;8.24;95.94
32873;BME280;19224;52.462;16.898;2023-04-27T06:12:29;100585.77;;;8.18;95.23
32873;BME280;19224;52.462;16.898;2023-04-27T06:15:00;100581.27;;;8.04;95.81
32873;BME280;19224;52.462;16.898;2023-04-27T06:17:32;100585.25;;;8.05;95.85
32873;BME280;19224;52.462;16.898;2023-04-27T06:20:03;100582.87;;;8.09;95.11
32873;BME280;19224;52.462;16.898;2023-04-27T06:22:38;100583.05;;;8.19;94.88
32873;BME280;19224;52.462;16.898;2023-04-27T06:25:09;100582.78;;;8.28;93.59
32873;BME280;19224;52.462;16.898;2023-04-27T06:27:40;100578.12;;;8.48;93.63
32873;BME280;19224;52.462;16.898;2023-04-27T06:30:11;100580.73;;;8.51;92.95
32873;BME280;19224;52.462;16.898;2023-04-27T06:32:41;100581.07;;;8.53;92.82
32873;BME280;19224;52.462;16.898;2023-04-27T06:35:13;100588.02;;;8.60;93.02
32873;BME280;19224;52.462;16.898;2023-04-27T06:37:45;100588.56;;;8.57;92.23
32873;BME280;19224;52.462;16.898;2023-04-27T06:40:15;100589.07;;;8.27;92.99
32873;BME280;19224;52.462;16.898;2023-04-27T06:42:46;100585.98;;;8.10;93.18
32873;BME280;19224;52.462;16.898;2023-04-27T06:45:16;100596.26;;;8.11;93.79
32873;BME280;19224;52.462;16.898;2023-04-27T06:47:46;100592.69;;;8.26;93.20
32873;BME280;19224;52.462;16.898;2023-04-27T06:50:16;100593.88;;;8.45;93.14
32873;BME280;19224;52.462;16.898;2023-04-27T06:52:47;100594.70;;;8.47;92.36
32873;BME280;19224;52.462;16.898;2023-04-27T06:55:17;100588.53;;;8.58;92.24
32873;BME280;19224;52.462;16.898;2023-04-27T06:57:47;100589.37;;;8.46;93.03
32873;BME280;19224;52.462;16.898;2023-04-27T07:00:18;100593.91;;;8.58;91.79
32873;BME280;19224;52.462;16.898;2023-04-27T07:02:48;100593.38;;;8.60;91.66
32873;BME280;19224;52.462;16.898;2023-04-27T07:05:19;100591.53;;;8.75;90.30
32873;BME280;19224;52.462;16.898;2023-04-27T07:07:50;100587.08;;;8.61;91.75
32873;BME280;19224;52.462;16.898;2023-04-27T07:10:21;100588.80;;;8.64;90.18
32873;BME280;19224;52.462;16.898;2023-04-27T07:12:51;100591.00;;;8.64;88.60
32873;BME280;19224;52.462;16.898;2023-04-27T07:15:22;100586.85;;;8.54;89.25
32873;BME280;19224;52.462;16.898;2023-04-27T07:17:54;100593.01;;;8.58;89.48
32873;BME280;19224;52.462;16.898;2023-04-27T07:20:25;100586.23;;;8.74;87.78
32873;BME280;19224;52.462;16.898;2023-04-27T07:22:56;100594.09;;;8.65;87.91
32873;BME280;19224;52.462;16.898;2023-04-27T07:25:26;100582.00;;;8.52;88.12
32873;BME280;19224;52.462;16.898;2023-04-27T07:27:56;100590.00;;;8.68;88.36
32873;BME280;19224;52.462;16.898;2023-04-27T07:30:27;100593.09;;;8.69;85.63
32873;BME280;19224;52.462;16.898;2023-04-27T07:32:58;100590.41;;;8.69;86.35
32873;BME280;19224;52.462;16.898;2023-04-27T07:35:29;100587.44;;;8.51;84.24
32873;BME280;19224;52.462;16.898;2023-04-27T07:38:00;100595.94;;;8.50;81.57
32873;BME280;19224;52.462;16.898;2023-04-27T07:40:31;100590.86;;;8.41;81.03
32873;BME280;19224;52.462;16.898;2023-04-27T07:43:02;100594.30;;;8.46;81.37
32873;BME280;19224;52.462;16.898;2023-04-27T07:45:33;100589.48;;;8.70;82.22
32873;BME280;19224;52.462;16.898;2023-04-27T07:48:06;100595.94;;;8.78;78.32
32873;BME280;19224;52.462;16.898;2023-04-27T07:50:36;100593.66;;;8.79;77.69
32873;BME280;19224;52.462;16.898;2023-04-27T07:53:06;100599.59;;;8.88;74.58
32873;BME280;19224;52.462;16.898;2023-04-27T07:55:36;100597.54;;;8.83;75.32
32873;BME280;19224;52.462;16.898;2023-04-27T07:58:07;100600.52;;;8.87;73.14
32873;BME280;19224;52.462;16.898;2023-04-27T08:00:37;100599.30;;;8.97;70.15
32873;BME280;19224;52.462;16.898;2023-04-27T08:03:08;100594.77;;;9.12;70.14
32873;BME280;19224;52.462;16.898;2023-04-27T08:05:38;100590.14;;;9.16;71.83
32873;BME280;19224;52.462;16.898;2023-04-27T08:08:08;100589.98;;;9.20;71.97
32873;BME280;19224;52.462;16.898;2023-04-27T08:10:39;100591.09;;;9.28;72.46
32873;BME280;19224;52.462;16.898;2023-04-27T08:13:11;100596.87;;;9.29;67.18
32873;BME280;19224;52.462;16.898;2023-04-27T08:15:41;100593.04;;;9.23;67.17
32873;BME280;19224;52.462;16.898;2023-04-27T08:18:12;100608.05;;;9.17;66.89
32873;BME280;19224;52.462;16.898;2023-04-27T08:20:42;100613.17;;;9.11;68.46
32873;BME280;19224;52.462;16.898;2023-04-27T08:23:12;100611.91;;;9.08;69.62
32873;BME280;19224;52.462;16.898;2023-04-27T08:25:43;100596.55;;;9.25;68.49
32873;BME280;19224;52.462;16.898;2023-04-27T08:28:14;100606.19;;;9.43;67.25
32873;BME280;19224;52.462;16.898;2023-04-27T08:30:45;100596.69;;;9.46;69.83
32873;BME280;19224;52.462;16.898;2023-04-27T08:33:15;100617.52;;;9.52;66.50
32873;BME280;19224;52.462;16.898;2023-04-27T08:35:45;100601.02;;;9.50;68.59
32873;BME280;19224;52.462;16.898;2023-04-27T08:38:15;100601.66;;;9.45;66.98
32873;BME280;19224;52.462;16.898;2023-04-27T08:40:46;100606.56;;;9.70;65.23
32873;BME280;19224;52.462;16.898;2023-04-27T08:43:16;100604.89;;;9.79;64.90
32873;BME280;19224;52.462;16.898;2023-04-27T08:45:50;100604.59;;;9.98;64.90
32873;BME280;19224;52.462;16.898;2023-04-27T08:48:21;100598.69;;;10.13;64.50
32873;BME280;19224;52.462;16.898;2023-04-27T08:50:53;100602.38;;;10.22;62.83
32873;BME280;19224;52.462;16.898;2023-04-27T08:53:25;100605.73;;;10.38;57.64
32873;BME280;19224;52.462;16.898;2023-04-27T08:55:55;100605.33;;;10.49;55.09
32873;BME280;19224;52.462;16.898;2023-04-27T08:58:38;100602.23;;;10.36;54.89
32873;BME280;19224;52.462;16.898;2023-04-27T09:01:09;100607.55;;;10.26;59.58
32873;BME280;19224;52.462;16.898;2023-04-27T09:03:39;100616.95;;;10.16;59.82
32873;BME280;19224;52.462;16.898;2023-04-27T09:06:09;100600.09;;;10.23;54.75
32873;BME280;19224;52.462;16.898;2023-04-27T09:08:50;100604.06;;;10.36;53.78
32873;BME280;19224;52.462;16.898;2023-04-27T09:11:35;100608.92;;;10.15;52.64
32873;BME280;19224;52.462;16.898;2023-04-27T09:14:21;100606.85;;;10.33;53.27
32873;BME280;19224;52.462;16.898;2023-04-27T09:16:56;100616.46;;;10.51;53.03
32873;BME280;19224;52.462;16.898;2023-04-27T09:19:29;100612.84;;;10.29;51.12
32873;BME280;19224;52.462;16.898;2023-04-27T09:22:10;100613.00;;;10.36;50.47
32873;BME280;19224;52.462;16.898;2023-04-27T09:24:52;100593.64;;;10.27;50.04
32873;BME280;19224;52.462;16.898;2023-04-27T09:27:22;100599.19;;;10.45;50.87
32873;BME280;19224;52.462;16.898;2023-04-27T09:29:53;100597.34;;;10.69;50.66
32873;BME280;19224;52.462;16.898;2023-04-27T09:32:23;100592.93;;;10.78;49.61
32873;BME280;19224;52.462;16.898;2023-04-27T09:34:54;100604.80;;;10.51;49.01
32873;BME280;19224;52.462;16.898;2023-04-27T09:37:24;100587.52;;;10.56;48.95
32873;BME280;19224;52.462;16.898;2023-04-27T09:39:54;100595.99;;;10.69;49.17
32873;BME280;19224;52.462;16.898;2023-04-27T09:42:25;100583.06;;;10.67;49.51
32873;BME280;19224;52.462;16.898;2023-04-27T09:44:56;100592.05;;;10.66;49.25
32873;BME280;19224;52.462;16.898;2023-04-27T09:47:28;100597.52;;;10.86;48.59
32873;BME280;19224;52.462;16.898;2023-04-27T09:49:59;100591.38;;;11.04;48.56
32873;BME280;19224;52.462;16.898;2023-04-27T09:52:32;100586.83;;;11.26;46.14
32873;BME280;19224;52.462;16.898;2023-04-27T09:55:04;100585.46;;;11.16;43.33
32873;BME280;19224;52.462;16.898;2023-04-27T10:03:20;100582.51;;;11.42;45.11
32873;BME280;19224;52.462;16.898;2023-04-27T10:06:26;100590.48;;;11.35;43.95
32873;BME280;19224;52.462;16.898;2023-04-27T10:08:51;100580.05;;;11.06;44.47
32873;BME280;19224;52.462;16.898;2023-04-27T10:11:32;100603.69;;;10.99;46.78
32873;BME280;19224;52.462;16.898;2023-04-27T10:13:54;100604.13;;;10.67;48.86
32873;BME280;19224;52.462;16.898;2023-04-27T10:16:24;100589.70;;;10.80;49.77
32873;BME280;19224;52.462;16.898;2023-04-27T10:18:56;100584.59;;;11.25;46.55
32873;BME280;19224;52.462;16.898;2023-04-27T10:21:26;100587.80;;;11.45;45.37
32873;BME280;19224;52.462;16.898;2023-04-27T10:24:07;100581.97;;;11.54;46.51
32873;BME280;19224;52.462;16.898;2023-04-27T10:26:45;100588.49;;;11.60;44.86
32873;BME280;19224;52.462;16.898;2023-04-27T10:29:14;100593.19;;;11.85;45.60
32873;BME280;19224;52.462;16.898;2023-04-27T10:31:48;100581.97;;;12.03;41.85
32873;BME280;19224;52.462;16.898;2023-04-27T10:34:25;100594.74;;;11.70;44.50
32873;BME280;19224;52.462;16.898;2023-04-27T10:37:03;100591.27;;;11.27;45.08
32873;BME280;19224;52.462;16.898;2023-04-27T10:39:33;100598.99;;;10.83;47.33
32873;BME280;19224;52.462;16.898;2023-04-27T10:42:01;100601.34;;;10.80;48.64
32873;BME280;19224;52.462;16.898;2023-04-27T10:44:33;100606.55;;;10.52;48.94
32873;BME280;19224;52.462;16.898;2023-04-27T10:47:17;100606.98;;;10.30;50.74
32873;BME280;19224;52.462;16.898;2023-04-27T10:49:50;100601.02;;;10.78;48.53
32873;BME280;19224;52.462;16.898;2023-04-27T10:52:19;100602.80;;;10.89;47.82
32873;BME280;19224;52.462;16.898;2023-04-27T10:54:50;100608.48;;;10.81;47.93
32873;BME280;19224;52.462;16.898;2023-04-27T10:57:20;100611.79;;;10.45;49.63
32873;BME280;19224;52.462;16.898;2023-04-27T10:59:53;100602.69;;;10.59;50.27
32873;BME280;19224;52.462;16.898;2023-04-27T11:02:30;100608.66;;;10.77;48.35
32873;BME280;19224;52.462;16.898;2023-04-27T11:04:59;100611.59;;;11.04;46.97
32873;BME280;19224;52.462;16.898;2023-04-27T11:07:31;100607.25;;;10.90;47.32
32873;BME280;19224;52.462;16.898;2023-04-27T11:10:02;100611.51;;;10.95;47.43
32873;BME280;19224;52.462;16.898;2023-04-27T11:12:32;100610.29;;;11.02;47.12
32873;BME280;19224;52.462;16.898;2023-04-27T11:15:04;100607.97;;;10.93;46.52
32873;BME280;19224;52.462;16.898;2023-04-27T11:17:35;100605.49;;;10.99;45.25
32873;BME280;19224;52.462;16.898;2023-04-27T11:20:07;100600.69;;;11.17;44.90
32873;BME280;19224;52.462;16.898;2023-04-27T11:22:45;100610.61;;;10.95;45.05
32873;BME280;19224;52.462;16.898;2023-04-27T11:25:16;100615.36;;;11.00;44.12
32873;BME280;19224;52.462;16.898;2023-04-27T11:27:46;100626.21;;;10.54;44.62
32873;BME280;19224;52.462;16.898;2023-04-27T11:30:21;100637.41;;;10.32;44.97
32873;BME280;19224;52.462;16.898;2023-04-27T11:32:52;100639.80;;;10.51;45.67
32873;BME280;19224;52.462;16.898;2023-04-27T11:35:33;100632.45;;;10.66;45.79
32873;BME280;19224;52.462;16.898;2023-04-27T11:38:04;100630.30;;;10.75;46.20
32873;BME280;19224;52.462;16.898;2023-04-27T11:40:34;100630.43;;;10.61;45.56
32873;BME280;19224;52.462;16.898;2023-04-27T11:43:06;100624.86;;;10.87;44.88
32873;BME280;19224;52.462;16.898;2023-04-27T11:45:42;100628.00;;;10.98;45.01
32873;BME280;19224;52.462;16.898;2023-04-27T11:48:16;100630.28;;;10.97;44.69
32873;BME280;19224;52.462;16.898;2023-04-27T11:50:48;100626.52;;;11.22;44.64
32873;BME280;19224;52.462;16.898;2023-04-27T11:53:34;100626.20;;;11.40;44.28
32873;BME280;19224;52.462;16.898;2023-04-27T11:56:08;100622.33;;;11.77;43.79
32873;BME280;19224;52.462;16.898;2023-04-27T11:58:39;100634.49;;;11.57;42.63
32873;BME280;19224;52.462;16.898;2023-04-27T12:01:10;100627.17;;;11.98;41.78
32873;BME280;19224;52.462;16.898;2023-04-27T12:03:40;100639.72;;;11.99;40.83
32873;BME280;19224;52.462;16.898;2023-04-27T12:06:11;100625.91;;;11.97;39.06
32873;BME280;19224;52.462;16.898;2023-04-27T12:08:41;100624.38;;;11.82;41.34
32873;BME280;19224;52.462;16.898;2023-04-27T12:11:11;100616.78;;;11.99;40.96
32873;BME280;19224;52.462;16.898;2023-04-27T12:13:41;100624.63;;;11.95;41.06
32873;BME280;19224;52.462;16.898;2023-04-27T12:16:12;100634.88;;;11.88;41.73
32873;BME280;19224;52.462;16.898;2023-04-27T12:18:42;100630.02;;;12.05;41.60
32873;BME280;19224;52.462;16.898;2023-04-27T12:21:12;100634.06;;;12.05;41.05
32873;BME280;19224;52.462;16.898;2023-04-27T12:23:44;100623.63;;;12.26;41.57
32873;BME280;19224;52.462;16.898;2023-04-27T12:26:14;100619.61;;;12.35;41.90
32873;BME280;19224;52.462;16.898;2023-04-27T12:28:44;100621.44;;;12.44;42.69
32873;BME280;19224;52.462;16.898;2023-04-27T12:31:15;100617.59;;;12.58;42.26
32873;BME280;19224;52.462;16.898;2023-04-27T12:33:47;100628.58;;;12.45;43.55
32873;BME280;19224;52.462;16.898;2023-04-27T12:36:18;100624.16;;;12.34;43.95
32873;BME280;19224;52.462;16.898;2023-04-27T12:38:49;100620.17;;;11.85;44.94
32873;BME280;19224;52.462;16.898;2023-04-27T12:41:19;100623.08;;;12.28;44.10
32873;BME280;19224;52.462;16.898;2023-04-27T12:43:51;100634.45;;;12.16;41.93
32873;BME280;19224;52.462;16.898;2023-04-27T12:46:21;100643.09;;;12.14;41.66
32873;BME280;19224;52.462;16.898;2023-04-27T12:48:51;100634.27;;;11.91;42.06
32873;BME280;19224;52.462;16.898;2023-04-27T12:51:22;100637.72;;;11.75;42.36
32873;BME280;19224;52.462;16.898;2023-04-27T12:53:52;100630.86;;;11.78;42.88
32873;BME280;19224;52.462;16.898;2023-04-27T12:56:23;100635.66;;;12.09;41.61
32873;BME280;19224;52.462;16.898;2023-04-27T12:58:55;100624.86;;;12.09;41.92
32873;BME280;19224;52.462;16.898;2023-04-27T13:01:27;100646.28;;;12.32;41.27
32873;BME280;19224;52.462;16.898;2023-04-27T13:04:01;100630.62;;;12.02;41.95
32873;BME280;19224;52.462;16.898;2023-04-27T13:06:32;100629.55;;;12.06;42.35
32873;BME280;19224;52.462;16.898;2023-04-27T13:09:02;100635.87;;;12.05;42.52
32873;BME280;19224;52.462;16.898;2023-04-27T13:11:33;100627.87;;;11.93;42.50